sensor_id;sensor_type;location;lat;lon;timestamp;pressure;altitude;pressure_sealevel;temperature;humidity
17054;BME280;8643;48.824;11.422;2022-07-23T00:00:52;96960.75;;;21.30;81.43
17054;BME280;8643;48.824;11.422;2022-07-23T00:03:21;96961.56;;;21.20;81.55
17054;BME280;8643;48.824;11.422;2022-07-23T00:05:49;96957.59;;;21.10;81.80
17054;BME280;8643;48.824;11.422;2022-07-23T00:08:18;96944.09;;;21.05;84.40
17054;BME280;8643;48.824;11.422;2022-07-23T00:10:46;96951.66;;;20.97;84.13
17054;BME280;8643;48.824;11.422;2022-07-23T00:13:14;96954.44;;;21.04;84.34
17054;BME280;8643;48.824;11.422;2022-07-23T00:15:44;96954.75;;;21.39;83.11
17054;BME280;8643;48.824;11.422;2022-07-23T00:18:12;96947.19;;;21.50;82.58
17054;BME280;8643;48.824;11.422;2022-07-23T00:20:40;96946.28;;;21.71;80.87
17054;BME280;8643;48.824;11.422;2022-07-23T00:23:09;96940.56;;;21.96;79.58
17054;BME280;8643;48.824;11.422;2022-07-23T00:25:37;96944.16;;;21.97;80.50
17054;BME280;8643;48.824;11.422;2022-07-23T00:28:06;96937.44;;;21.91;79.87
17054;BME280;8643;48.824;11.422;2022-07-23T00:30:34;96940.13;;;22.02;77.74
17054;BME280;8643;48.824;11.422;2022-07-23T00:33:07;96931.78;;;22.05;77.10
17054;BME280;8643;48.824;11.422;2022-07-23T00:35:40;96927.03;;;21.95;77.86
17054;BME280;8643;48.824;11.422;2022-07-23T00:38:10;96922.78;;;21.76;78.58
17054;BME280;8643;48.824;11.422;2022-07-23T00:40:39;96918.84;;;21.66;79.23
17054;BME280;8643;48.824;11.422;2022-07-23T00:43:08;96905.41;;;21.50;79.91
17054;BME280;8643;48.824;11.422;2022-07-23T00:45:36;96914.19;;;21.34;79.65
17054;BME280;8643;48.824;11.422;2022-07-23T00:48:07;96914.16;;;21.49;79.46
17054;BME280;8643;48.824;11.422;2022-07-23T00:50:35;96913.34;;;21.52;82.23
17054;BME280;8643;48.824;11.422;2022-07-23T00:53:04;96926.44;;;21.58;81.08
17054;BME280;8643;48.824;11.422;2022-07-23T00:55:33;96933.47;;;21.85;80.53
17054;BME280;8643;48.824;11.422;2022-07-23T00:58:03;96948.00;;;22.18;78.35
17054;BME280;8643;48.824;11.422;2022-07-23T01:00:32;96947.25;;;22.13;77.64
17054;BME280;8643;48.824;11.422;2022-07-23T01:03:00;96939.72;;;22.03;78.22
17054;BME280;8643;48.824;11.422;2022-07-23T01:05:30;96936.94;;;22.03;78.22
17054;BME280;8643;48.824;11.422;2022-07-23T01:07:59;96952.75;;;22.24;76.20
17054;BME280;8643;48.824;11.422;2022-07-23T01:10:28;96962.97;;;22.49;74.63
17054;BME280;8643;48.824;11.422;2022-07-23T01:13:02;96952.53;;;22.57;72.56
17054;BME280;8643;48.824;11.422;2022-07-23T01:15:32;96954.56;;;22.52;73.44
17054;BME280;8643;48.824;11.422;2022-07-23T01:18:01;96958.22;;;22.46;69.55
17054;BME280;8643;48.824;11.422;2022-07-23T01:20:33;96992.56;;;22.28;68.90
17054;BME280;8643;48.824;11.422;2022-07-23T01:23:02;96997.03;;;22.11;71.80
17054;BME280;8643;48.824;11.422;2022-07-23T01:25:31;97006.38;;;21.79;73.85
17054;BME280;8643;48.824;11.422;2022-07-23T01:28:02;97035.09;;;21.62;76.07
17054;BME280;8643;48.824;11.422;2022-07-23T01:30:30;97071.75;;;21.06;79.82
17054;BME280;8643;48.824;11.422;2022-07-23T01:33:00;97026.41;;;20.95;85.71
17054;BME280;8643;48.824;11.422;2022-07-23T01:35:29;97041.53;;;20.87;86.54
17054;BME280;8643;48.824;11.422;2022-07-23T01:38:04;97054.63;;;20.79;88.46
17054;BME280;8643;48.824;11.422;2022-07-23T01:40:33;97047.06;;;20.62;91.66
17054;BME280;8643;48.824;11.422;2022-07-23T01:43:01;97035.09;;;20.40;90.22
17054;BME280;8643;48.824;11.422;2022-07-23T01:45:33;97050.16;;;20.28;93.37
17054;BME280;8643;48.824;11.422;2022-07-23T01:48:01;97054.00;;;19.84;99.04
17054;BME280;8643;48.824;11.422;2022-07-23T01:50:37;97061.94;;;19.22;100.00
17054;BME280;8643;48.824;11.422;2022-07-23T01:53:33;97067.53;;;18.81;100.00
17054;BME280;8643;48.824;11.422;2022-07-23T01:56:01;97083.31;;;18.74;100.00
17054;BME280;8643;48.824;11.422;2022-07-23T01:58:30;97095.09;;;18.63;100.00
17054;BME280;8643;48.824;11.422;2022-07-23T02:00:59;97114.16;;;18.65;100.00
17054;BME280;8643;48.824;11.422;2022-07-23T02:03:29;97121.16;;;18.89;100.00
17054;BME280;8643;48.824;11.422;2022-07-23T02:05:57;97125.50;;;18.90;100.00
17054;BME280;8643;48.824;11.422;2022-07-23T02:08:28;97122.16;;;18.74;100.00
17054;BME280;8643;48.824;11.422;2022-07-23T02:10:58;97126.00;;;18.62;100.00
17054;BME280;8643;48.824;11.422;2022-07-23T02:13:26;97111.47;;;18.38;100.00
17054;BME280;8643;48.824;11.422;2022-07-23T02:16:00;97121.97;;;18.22;100.00
17054;BME280;8643;48.824;11.422;2022-07-23T02:18:29;97106.03;;;18.11;100.00
17054;BME280;8643;48.824;11.422;2022-07-23T02:20:57;97085.81;;;18.07;100.00
17054;BME280;8643;48.824;11.422;2022-07-23T02:23:27;97066.72;;;18.02;100.00
17054;BME280;8643;48.824;11.422;2022-07-23T02:25:55;97060.44;;;18.05;100.00
17054;BME280;8643;48.824;11.422;2022-07-23T02:28:25;97075.50;;;18.08;100.00
17054;BME280;8643;48.824;11.422;2022-07-23T02:30:54;97106.44;;;18.13;100.00
17054;BME280;8643;48.824;11.422;2022-07-23T02:33:22;97112.13;;;18.24;100.00
17054;BME280;8643;48.824;11.422;2022-07-23T02:35:50;97097.03;;;18.22;100.00
17054;BME280;8643;48.824;11.422;2022-07-23T02:38:20;97091.56;;;18.25;100.00
17054;BME280;8643;48.824;11.422;2022-07-23T02:40:49;97075.16;;;18.13;100.00
17054;BME280;8643;48.824;11.422;2022-07-23T02:43:18;97074.91;;;17.91;100.00
17054;BME280;8643;48.824;11.422;2022-07-23T02:45:48;97080.50;;;17.95;100.00
17054;BME280;8643;48.824;11.422;2022-07-23T02:48:16;97073.84;;;18.00;100.00
17054;BME280;8643;48.824;11.422;2022-07-23T02:50:47;97072.13;;;17.88;100.00
17054;BME280;8643;48.824;11.422;2022-07-23T02:53:21;97077.50;;;17.81;100.00
17054;BME280;8643;48.824;11.422;2022-07-23T02:55:49;97069.22;;;17.81;100.00
17054;BME280;8643;48.824;11.422;2022-07-23T02:58:18;97052.19;;;17.78;100.00
17054;BME280;8643;48.824;11.422;2022-07-23T03:00:48;97048.13;;;17.72;100.00
17054;BME280;8643;48.824;11.422;2022-07-23T03:03:16;97058.38;;;17.68;100.00
17054;BME280;8643;48.824;11.422;2022-07-23T03:05:45;97052.78;;;17.65;100.00
17054;BME280;8643;48.824;11.422;2022-07-23T03:08:13;97044.81;;;17.59;100.00
17054;BME280;8643;48.824;11.422;2022-07-23T03:10:46;97048.31;;;17.56;100.00
17054;BME280;8643;48.824;11.422;2022-07-23T03:13:15;97048.69;;;17.55;100.00
17054;BME280;8643;48.824;11.422;2022-07-23T03:15:44;97039.22;;;17.56;100.00
17054;BME280;8643;48.824;11.422;2022-07-23T03:18:14;97022.19;;;17.54;100.00
17054;BME280;8643;48.824;11.422;2022-07-23T03:20:43;97039.00;;;17.68;100.00
17054;BME280;8643;48.824;11.422;2022-07-23T03:23:11;97036.59;;;17.97;100.00
17054;BME280;8643;48.824;11.422;2022-07-23T03:25:40;97014.00;;;17.95;100.00
17054;BME280;8643;48.824;11.422;2022-07-23T03:28:10;97011.97;;;17.88;100.00
17054;BME280;8643;48.824;11.422;2022-07-23T03:30:38;97022.53;;;17.83;100.00
17054;BME280;8643;48.824;11.422;2022-07-23T03:33:07;97034.25;;;17.99;100.00
17054;BME280;8643;48.824;11.422;2022-07-23T03:35:36;97034.47;;;18.17;100.00
17054;BME280;8643;48.824;11.422;2022-07-23T03:38:15;97031.94;;;18.05;100.00
17054;BME280;8643;48.824;11.422;2022-07-23T03:40:44;97023.84;;;17.89;100.00
17054;BME280;8643;48.824;11.422;2022-07-23T03:43:12;97009.75;;;17.71;100.00
17054;BME280;8643;48.824;11.422;2022-07-23T03:45:41;96995.06;;;17.67;100.00
17054;BME280;8643;48.824;11.422;2022-07-23T03:48:09;96978.03;;;17.65;100.00
17054;BME280;8643;48.824;11.422;2022-07-23T03:50:39;96990.63;;;17.58;100.00
17054;BME280;8643;48.824;11.422;2022-07-23T03:53:08;97012.63;;;17.48;100.00
17054;BME280;8643;48.824;11.422;2022-07-23T03:55:36;97013.06;;;17.53;100.00
17054;BME280;8643;48.824;11.422;2022-07-23T03:58:05;97019.84;;;17.56;100.00
17054;BME280;8643;48.824;11.422;2022-07-23T04:00:33;97006.41;;;17.58;100.00
17054;BME280;8643;48.824;11.422;2022-07-23T04:03:02;97013.53;;;17.55;100.00
17054;BME280;8643;48.824;11.422;2022-07-23T04:05:33;97002.72;;;17.47;100.00
17054;BME280;8643;48.824;11.422;2022-07-23T04:08:12;97008.91;;;17.36;100.00
17054;BME280;8643;48.824;11.422;2022-07-23T04:10:44;97005.13;;;17.18;100.00
17054;BME280;8643;48.824;11.422;2022-07-23T04:13:13;97003.03;;;17.11;100.00
17054;BME280;8643;48.824;11.422;2022-07-23T04:15:41;97006.31;;;17.20;100.00
17054;BME280;8643;48.824;11.422;2022-07-23T04:18:10;97011.25;;;17.34;100.00
17054;BME280;8643;48.824;11.422;2022-07-23T04:20:48;97016.03;;;17.68;100.00
17054;BME280;8643;48.824;11.422;2022-07-23T04:23:18;97021.25;;;18.07;100.00
17054;BME280;8643;48.824;11.422;2022-07-23T04:25:47;97016.59;;;18.14;100.00
17054;BME280;8643;48.824;11.422;2022-07-23T04:28:16;97022.97;;;18.19;100.00
17054;BME280;8643;48.824;11.422;2022-07-23T04:30:45;97016.03;;;17.98;100.00
17054;BME280;8643;48.824;11.422;2022-07-23T04:33:15;96999.94;;;17.77;100.00
17054;BME280;8643;48.824;11.422;2022-07-23T04:35:47;97006.25;;;17.77;100.00
17054;BME280;8643;48.824;11.422;2022-07-23T04:38:20;97006.69;;;17.80;100.00
17054;BME280;8643;48.824;11.422;2022-07-23T04:40:51;97012.50;;;17.71;100.00
17054;BME280;8643;48.824;11.422;2022-07-23T04:43:20;97024.34;;;17.68;100.00
17054;BME280;8643;48.824;11.422;2022-07-23T04:45:50;97024.47;;;17.78;100.00
17054;BME280;8643;48.824;11.422;2022-07-23T04:48:19;97026.59;;;17.89;100.00
17054;BME280;8643;48.824;11.422;2022-07-23T04:50:54;97028.09;;;18.17;100.00
17054;BME280;8643;48.824;11.422;2022-07-23T04:53:24;97023.13;;;18.33;100.00
17054;BME280;8643;48.824;11.422;2022-07-23T04:55:57;97030.25;;;18.34;100.00
17054;BME280;8643;48.824;11.422;2022-07-23T04:58:25;97030.81;;;18.50;100.00
17054;BME280;8643;48.824;11.422;2022-07-23T05:00:53;97034.84;;;18.57;100.00
17054;BME280;8643;48.824;11.422;2022-07-23T05:03:25;97035.66;;;18.61;100.00
17054;BME280;8643;48.824;11.422;2022-07-23T05:05:54;97028.06;;;18.54;100.00
17054;BME280;8643;48.824;11.422;2022-07-23T05:08:24;97049.16;;;18.25;100.00
17054;BME280;8643;48.824;11.422;2022-07-23T05:10:55;97049.63;;;18.30;100.00
17054;BME280;8643;48.824;11.422;2022-07-23T05:13:23;97045.78;;;18.42;100.00
17054;BME280;8643;48.824;11.422;2022-07-23T05:15:52;97056.88;;;18.42;100.00
17054;BME280;8643;48.824;11.422;2022-07-23T05:18:21;97048.16;;;18.40;100.00
17054;BME280;8643;48.824;11.422;2022-07-23T05:20:50;97051.81;;;18.52;100.00
17054;BME280;8643;48.824;11.422;2022-07-23T05:23:21;97049.94;;;18.63;100.00
17054;BME280;8643;48.824;11.422;2022-07-23T05:25:51;97052.34;;;18.64;100.00
17054;BME280;8643;48.824;11.422;2022-07-23T05:28:20;97054.69;;;18.62;100.00
17054;BME280;8643;48.824;11.422;2022-07-23T05:30:51;97043.56;;;18.59;100.00
17054;BME280;8643;48.824;11.422;2022-07-23T05:33:20;97031.72;;;18.65;100.00
17054;BME280;8643;48.824;11.422;2022-07-23T05:35:49;97037.31;;;18.69;100.00
17054;BME280;8643;48.824;11.422;2022-07-23T05:38:27;97035.00;;;18.78;100.00
17054;BME280;8643;48.824;11.422;2022-07-23T05:41:00;97046.69;;;18.54;100.00
17054;BME280;8643;48.824;11.422;2022-07-23T05:43:29;97043.88;;;18.50;100.00
17054;BME280;8643;48.824;11.422;2022-07-23T05:46:05;97047.13;;;18.59;100.00
17054;BME280;8643;48.824;11.422;2022-07-23T05:48:37;97038.91;;;18.70;100.00
17054;BME280;8643;48.824;11.422;2022-07-23T05:51:25;97033.53;;;18.88;100.00
17054;BME280;8643;48.824;11.422;2022-07-23T05:53:53;97040.75;;;18.96;100.00
17054;BME280;8643;48.824;11.422;2022-07-23T05:56:27;97050.84;;;19.26;100.00
17054;BME280;8643;48.824;11.422;2022-07-23T05:58:55;97043.00;;;19.39;100.00
17054;BME280;8643;48.824;11.422;2022-07-23T06:01:24;97046.34;;;19.70;100.00
17054;BME280;8643;48.824;11.422;2022-07-23T06:04:00;97040.88;;;19.77;100.00
17054;BME280;8643;48.824;11.422;2022-07-23T06:06:34;97047.63;;;19.83;100.00
17054;BME280;8643;48.824;11.422;2022-07-23T06:09:03;97043.72;;;19.99;100.00
17054;BME280;8643;48.824;11.422;2022-07-23T06:11:33;97050.06;;;19.92;100.00
17054;BME280;8643;48.824;11.422;2022-07-23T06:14:01;97056.78;;;19.94;100.00
17054;BME280;8643;48.824;11.422;2022-07-23T06:16:50;97057.16;;;19.86;100.00
17054;BME280;8643;48.824;11.422;2022-07-23T06:19:18;97073.06;;;19.92;100.00
17054;BME280;8643;48.824;11.422;2022-07-23T06:21:47;97072.31;;;20.03;100.00
17054;BME280;8643;48.824;11.422;2022-07-23T06:24:16;97077.94;;;20.17;100.00
17054;BME280;8643;48.824;11.422;2022-07-23T06:26:46;97079.94;;;20.24;100.00
17054;BME280;8643;48.824;11.422;2022-07-23T06:29:15;97089.03;;;20.17;100.00
17054;BME280;8643;48.824;11.422;2022-07-23T06:31:43;97084.31;;;20.21;100.00
17054;BME280;8643;48.824;11.422;2022-07-23T06:34:14;97092.69;;;20.36;100.00
17054;BME280;8643;48.824;11.422;2022-07-23T06:36:42;97092.28;;;20.33;100.00
17054;BME280;8643;48.824;11.422;2022-07-23T06:39:12;97087.16;;;20.43;100.00
17054;BME280;8643;48.824;11.422;2022-07-23T06:41:46;97081.97;;;20.48;100.00
17054;BME280;8643;48.824;11.422;2022-07-23T06:44:18;97090.66;;;20.18;100.00
17054;BME280;8643;48.824;11.422;2022-07-23T06:46:48;97090.72;;;20.43;100.00
17054;BME280;8643;48.824;11.422;2022-07-23T06:49:16;97089.16;;;20.49;100.00
17054;BME280;8643;48.824;11.422;2022-07-23T06:51:45;97087.16;;;20.43;100.00
17054;BME280;8643;48.824;11.422;2022-07-23T06:54:14;97091.53;;;20.58;100.00
17054;BME280;8643;48.824;11.422;2022-07-23T06:56:43;97098.78;;;21.06;100.00
17054;BME280;8643;48.824;11.422;2022-07-23T06:59:12;97097.97;;;21.63;100.00
17054;BME280;8643;48.824;11.422;2022-07-23T07:01:42;97095.81;;;22.14;100.00
17054;BME280;8643;48.824;11.422;2022-07-23T07:04:11;97101.03;;;22.01;100.00
17054;BME280;8643;48.824;11.422;2022-07-23T07:06:39;97096.88;;;22.52;100.00
17054;BME280;8643;48.824;11.422;2022-07-23T07:09:08;97099.28;;;23.06;95.25
17054;BME280;8643;48.824;11.422;2022-07-23T07:11:37;97112.00;;;23.64;94.19
17054;BME280;8643;48.824;11.422;2022-07-23T07:14:06;97118.16;;;23.44;90.31
17054;BME280;8643;48.824;11.422;2022-07-23T07:16:36;97112.66;;;23.33;90.58
17054;BME280;8643;48.824;11.422;2022-07-23T07:19:04;97110.09;;;23.01;97.57
17054;BME280;8643;48.824;11.422;2022-07-23T07:21:34;97118.53;;;22.94;92.99
17054;BME280;8643;48.824;11.422;2022-07-23T07:24:05;97118.81;;;22.47;92.64
17054;BME280;8643;48.824;11.422;2022-07-23T07:26:34;97119.47;;;23.32;97.78
17054;BME280;8643;48.824;11.422;2022-07-23T07:29:02;97118.16;;;23.44;90.88
17054;BME280;8643;48.824;11.422;2022-07-23T07:31:32;97135.22;;;23.01;92.78
17054;BME280;8643;48.824;11.422;2022-07-23T07:34:03;97131.50;;;23.22;89.46
17054;BME280;8643;48.824;11.422;2022-07-23T07:36:33;97136.59;;;22.75;89.07
17054;BME280;8643;48.824;11.422;2022-07-23T07:39:04;97121.91;;;23.27;90.33
17054;BME280;8643;48.824;11.422;2022-07-23T07:41:34;97129.44;;;23.75;88.34
17054;BME280;8643;48.824;11.422;2022-07-23T07:44:03;97123.53;;;23.20;85.87
17054;BME280;8643;48.824;11.422;2022-07-23T07:46:32;97131.13;;;23.20;87.21
17054;BME280;8643;48.824;11.422;2022-07-23T07:49:02;97135.56;;;24.04;84.86
17054;BME280;8643;48.824;11.422;2022-07-23T07:51:32;97141.00;;;24.19;84.18
17054;BME280;8643;48.824;11.422;2022-07-23T07:54:01;97143.66;;;23.95;82.29
17054;BME280;8643;48.824;11.422;2022-07-23T07:56:31;97141.22;;;23.97;81.93
17054;BME280;8643;48.824;11.422;2022-07-23T07:58:59;97135.13;;;23.64;82.26
17054;BME280;8643;48.824;11.422;2022-07-23T08:01:28;97137.56;;;23.62;85.42
17054;BME280;8643;48.824;11.422;2022-07-23T08:03:57;97141.38;;;23.37;83.67
17054;BME280;8643;48.824;11.422;2022-07-23T08:06:27;97150.19;;;23.32;84.07
17054;BME280;8643;48.824;11.422;2022-07-23T08:08:56;97148.22;;;23.29;84.33
17054;BME280;8643;48.824;11.422;2022-07-23T08:11:25;97140.59;;;22.74;85.07
17054;BME280;8643;48.824;11.422;2022-07-23T08:13:54;97150.75;;;23.05;86.81
17054;BME280;8643;48.824;11.422;2022-07-23T08:16:23;97145.16;;;23.13;84.92
17054;BME280;8643;48.824;11.422;2022-07-23T08:18:51;97143.50;;;23.22;85.17
17054;BME280;8643;48.824;11.422;2022-07-23T08:21:20;97146.94;;;23.41;84.83
17054;BME280;8643;48.824;11.422;2022-07-23T08:23:50;97146.53;;;23.84;82.15
17054;BME280;8643;48.824;11.422;2022-07-23T08:26:19;97152.59;;;23.75;81.34
17054;BME280;8643;48.824;11.422;2022-07-23T08:28:47;97159.13;;;23.61;80.19
17054;BME280;8643;48.824;11.422;2022-07-23T08:31:16;97153.56;;;23.58;81.57
17054;BME280;8643;48.824;11.422;2022-07-23T08:33:44;97158.44;;;23.47;80.81
17054;BME280;8643;48.824;11.422;2022-07-23T08:36:13;97160.28;;;23.64;81.72
17054;BME280;8643;48.824;11.422;2022-07-23T08:38:41;97165.88;;;23.64;81.86
17054;BME280;8643;48.824;11.422;2022-07-23T08:41:11;97163.94;;;23.57;82.36
17054;BME280;8643;48.824;11.422;2022-07-23T08:43:40;97160.16;;;23.33;82.55
17054;BME280;8643;48.824;11.422;2022-07-23T08:46:14;97160.69;;;23.14;84.71
17054;BME280;8643;48.824;11.422;2022-07-23T08:48:48;97149.09;;;23.22;83.77
17054;BME280;8643;48.824;11.422;2022-07-23T08:51:17;97154.94;;;23.39;84.21
17054;BME280;8643;48.824;11.422;2022-07-23T08:53:47;97149.78;;;23.34;84.63
17054;BME280;8643;48.824;11.422;2022-07-23T08:56:17;97155.28;;;23.90;82.88
17054;BME280;8643;48.824;11.422;2022-07-23T08:58:46;97151.75;;;24.55;79.04
17054;BME280;8643;48.824;11.422;2022-07-23T09:01:15;97144.84;;;25.92;76.66
17054;BME280;8643;48.824;11.422;2022-07-23T09:03:44;97151.44;;;26.45;70.61
17054;BME280;8643;48.824;11.422;2022-07-23T09:06:14;97156.63;;;27.03;68.42
17054;BME280;8643;48.824;11.422;2022-07-23T09:08:43;97159.97;;;26.98;67.93
17054;BME280;8643;48.824;11.422;2022-07-23T09:11:17;97165.75;;;26.91;68.60
17054;BME280;8643;48.824;11.422;2022-07-23T09:13:48;97167.50;;;27.54;66.15
17054;BME280;8643;48.824;11.422;2022-07-23T09:16:25;97162.75;;;27.51;64.71
17054;BME280;8643;48.824;11.422;2022-07-23T09:18:56;97157.63;;;26.16;67.65
17054;BME280;8643;48.824;11.422;2022-07-23T09:21:27;97149.47;;;26.82;65.84
17054;BME280;8643;48.824;11.422;2022-07-23T09:23:58;97150.41;;;27.12;66.04
17054;BME280;8643;48.824;11.422;2022-07-23T09:26:34;97146.84;;;27.61;65.40
17054;BME280;8643;48.824;11.422;2022-07-23T09:29:09;97144.91;;;28.20;62.52
17054;BME280;8643;48.824;11.422;2022-07-23T09:31:46;97142.72;;;27.66;61.91
17054;BME280;8643;48.824;11.422;2022-07-23T09:34:19;97144.41;;;28.09;61.63
17054;BME280;8643;48.824;11.422;2022-07-23T09:36:53;97141.16;;;28.52;59.86
17054;BME280;8643;48.824;11.422;2022-07-23T09:39:27;97133.22;;;29.02;59.53
17054;BME280;8643;48.824;11.422;2022-07-23T09:42:12;97139.47;;;28.13;59.30
17054;BME280;8643;48.824;11.422;2022-07-23T09:44:42;97136.25;;;28.27;60.45
17054;BME280;8643;48.824;11.422;2022-07-23T09:47:10;97143.25;;;28.23;60.04
17054;BME280;8643;48.824;11.422;2022-07-23T09:49:39;97140.88;;;28.76;57.89
17054;BME280;8643;48.824;11.422;2022-07-23T09:52:09;97137.81;;;28.58;57.90
17054;BME280;8643;48.824;11.422;2022-07-23T09:54:39;97125.78;;;28.96;59.16
17054;BME280;8643;48.824;11.422;2022-07-23T09:57:12;97123.78;;;30.17;53.94
17054;BME280;8643;48.824;11.422;2022-07-23T09:59:44;97123.88;;;29.44;54.14
17054;BME280;8643;48.824;11.422;2022-07-23T10:02:13;97117.88;;;29.55;53.69
17054;BME280;8643;48.824;11.422;2022-07-23T10:05:08;97118.00;;;28.74;55.43
17054;BME280;8643;48.824;11.422;2022-07-23T10:08:10;97121.50;;;29.42;54.38
17054;BME280;8643;48.824;11.422;2022-07-23T10:10:58;97106.72;;;29.99;59.56
17054;BME280;8643;48.824;11.422;2022-07-23T10:13:36;97113.94;;;30.98;50.15
17054;BME280;8643;48.824;11.422;2022-07-23T10:16:30;97115.00;;;30.60;50.78
17054;BME280;8643;48.824;11.422;2022-07-23T10:19:01;97100.47;;;31.02;50.06
17054;BME280;8643;48.824;11.422;2022-07-23T10:21:40;97118.44;;;31.27;49.54
17054;BME280;8643;48.824;11.422;2022-07-23T10:24:23;97103.91;;;30.43;49.86
17054;BME280;8643;48.824;11.422;2022-07-23T10:27:15;97109.25;;;29.84;52.47
17054;BME280;8643;48.824;11.422;2022-07-23T10:30:00;97111.31;;;30.50;50.86
17054;BME280;8643;48.824;11.422;2022-07-23T10:32:45;97100.47;;;30.26;51.27
17054;BME280;8643;48.824;11.422;2022-07-23T10:35:24;97095.66;;;30.36;47.82
17054;BME280;8643;48.824;11.422;2022-07-23T10:38:02;97097.53;;;31.15;44.94
17054;BME280;8643;48.824;11.422;2022-07-23T10:40:34;97104.81;;;31.43;42.61
17054;BME280;8643;48.824;11.422;2022-07-23T10:43:15;97083.97;;;31.59;44.25
17054;BME280;8643;48.824;11.422;2022-07-23T10:45:50;97095.94;;;31.64;42.98
17054;BME280;8643;48.824;11.422;2022-07-23T10:48:20;97099.56;;;31.73;41.99
17054;BME280;8643;48.824;11.422;2022-07-23T10:51:12;97089.94;;;31.89;44.05
17054;BME280;8643;48.824;11.422;2022-07-23T10:53:57;97078.94;;;32.28;40.63
17054;BME280;8643;48.824;11.422;2022-07-23T10:57:05;97077.09;;;32.77;42.21
17054;BME280;8643;48.824;11.422;2022-07-23T11:00:15;97080.84;;;31.94;42.37
17054;BME280;8643;48.824;11.422;2022-07-23T11:02:47;97073.72;;;30.18;44.69
17054;BME280;8643;48.824;11.422;2022-07-23T11:05:18;97082.47;;;30.33;44.67
17054;BME280;8643;48.824;11.422;2022-07-23T11:08:24;97083.66;;;31.85;43.68
17054;BME280;8643;48.824;11.422;2022-07-23T11:11:07;97073.84;;;31.40;44.25
17054;BME280;8643;48.824;11.422;2022-07-23T11:13:47;97092.47;;;31.87;41.47
17054;BME280;8643;48.824;11.422;2022-07-23T11:16:22;97090.28;;;31.64;41.82
17054;BME280;8643;48.824;11.422;2022-07-23T11:19:04;97099.69;;;32.07;43.38
17054;BME280;8643;48.824;11.422;2022-07-23T11:21:56;97093.44;;;32.12;43.54
17054;BME280;8643;48.824;11.422;2022-07-23T11:24:26;97087.03;;;30.93;44.50
17054;BME280;8643;48.824;11.422;2022-07-23T11:27:00;97097.50;;;29.86;48.26
17054;BME280;8643;48.824;11.422;2022-07-23T11:29:43;97091.19;;;29.08;50.05
17054;BME280;8643;48.824;11.422;2022-07-23T11:32:39;97095.31;;;28.52;49.71
17054;BME280;8643;48.824;11.422;2022-07-23T11:35:25;97091.91;;;28.31;51.03
17054;BME280;8643;48.824;11.422;2022-07-23T11:38:05;97090.38;;;28.14;53.91
17054;BME280;8643;48.824;11.422;2022-07-23T11:40:35;97083.47;;;28.44;51.70
17054;BME280;8643;48.824;11.422;2022-07-23T11:43:06;97080.81;;;28.24;51.69
17054;BME280;8643;48.824;11.422;2022-07-23T11:45:38;97071.50;;;28.27;53.53
17054;BME280;8643;48.824;11.422;2022-07-23T11:48:09;97063.22;;;29.14;49.23
17054;BME280;8643;48.824;11.422;2022-07-23T11:50:39;97069.63;;;31.44;47.91
17054;BME280;8643;48.824;11.422;2022-07-23T11:53:07;97066.94;;;32.95;42.08
17054;BME280;8643;48.824;11.422;2022-07-23T11:55:37;97070.34;;;33.41;40.68
17054;BME280;8643;48.824;11.422;2022-07-23T11:58:05;97065.03;;;33.58;37.57
17054;BME280;8643;48.824;11.422;2022-07-23T12:00:34;97063.53;;;33.15;38.85
17054;BME280;8643;48.824;11.422;2022-07-23T12:03:07;97048.09;;;33.49;40.77
17054;BME280;8643;48.824;11.422;2022-07-23T12:05:39;97051.59;;;34.22;36.41
17054;BME280;8643;48.824;11.422;2022-07-23T12:08:09;97048.75;;;33.83;37.33
17054;BME280;8643;48.824;11.422;2022-07-23T12:10:41;97051.94;;;34.00;37.87
17054;BME280;8643;48.824;11.422;2022-07-23T12:13:12;97047.94;;;32.86;38.24
17054;BME280;8643;48.824;11.422;2022-07-23T12:15:44;97047.56;;;32.93;37.81
17054;BME280;8643;48.824;11.422;2022-07-23T12:18:16;97042.66;;;32.60;38.72
17054;BME280;8643;48.824;11.422;2022-07-23T12:20:49;97034.78;;;32.64;38.51
17054;BME280;8643;48.824;11.422;2022-07-23T12:23:21;97041.66;;;32.82;39.88
17054;BME280;8643;48.824;11.422;2022-07-23T12:25:52;97037.06;;;33.18;38.17
17054;BME280;8643;48.824;11.422;2022-07-23T12:28:26;97034.88;;;33.85;39.80
17054;BME280;8643;48.824;11.422;2022-07-23T12:30:57;97024.91;;;34.64;36.25
17054;BME280;8643;48.824;11.422;2022-07-23T12:33:28;97021.22;;;34.73;34.68
17054;BME280;8643;48.824;11.422;2022-07-23T12:36:01;97027.94;;;34.91;44.25
17054;BME280;8643;48.824;11.422;2022-07-23T12:38:38;97031.81;;;35.08;36.37
17054;BME280;8643;48.824;11.422;2022-07-23T12:41:07;97028.66;;;32.99;39.13
17054;BME280;8643;48.824;11.422;2022-07-23T12:43:38;97034.97;;;32.94;39.02
17054;BME280;8643;48.824;11.422;2022-07-23T12:46:10;97041.81;;;31.61;42.29
17054;BME280;8643;48.824;11.422;2022-07-23T12:48:49;97041.91;;;31.21;46.80
17054;BME280;8643;48.824;11.422;2022-07-23T12:51:23;97045.72;;;30.24;45.81
17054;BME280;8643;48.824;11.422;2022-07-23T12:53:55;97047.47;;;29.51;45.02
17054;BME280;8643;48.824;11.422;2022-07-23T12:56:30;97047.91;;;29.02;46.18
17054;BME280;8643;48.824;11.422;2022-07-23T12:59:05;97047.91;;;29.02;45.33
17054;BME280;8643;48.824;11.422;2022-07-23T13:01:40;97049.50;;;29.03;48.91
17054;BME280;8643;48.824;11.422;2022-07-23T13:04:11;97041.16;;;28.99;46.85
17054;BME280;8643;48.824;11.422;2022-07-23T13:06:44;97042.47;;;29.20;46.26
17054;BME280;8643;48.824;11.422;2022-07-23T13:09:16;97052.38;;;29.38;44.45
17054;BME280;8643;48.824;11.422;2022-07-23T13:11:47;97041.53;;;29.36;44.98
17054;BME280;8643;48.824;11.422;2022-07-23T13:14:17;97049.94;;;29.14;44.71
17054;BME280;8643;48.824;11.422;2022-07-23T13:16:48;97041.94;;;28.87;45.21
17054;BME280;8643;48.824;11.422;2022-07-23T13:19:18;97055.81;;;28.68;46.26